Time;durP1;ratioP1;P1;durP2;ratioP2;P2;SDS_P1;SDS_P2;PMS_P1;PMS_P2;Temp;Humidity;BMP_temperature;BMP_pressure;BME280_temperature;BME280_humidity;BME280_pressure;Samples;Min_cycle;Max_cycle;Signal;HPM_P1;HPM_P2
2022/06/05 00:01:39;;;;;;;7.85;5.18;;;12.00;83.60;;;;;;5088733;28;20071;-88
2022/06/05 00:04:14;;;;;;;8.82;5.13;;;12.00;83.70;;;;;;5092028;28;20034;-88
2022/06/05 00:06:55;;;;;;;7.43;5.05;;;11.90;83.80;;;;;;5098179;28;20027;-87
2022/06/05 00:09:39;;;;;;;7.13;5.05;;;11.90;83.80;;;;;;5111371;27;20452;-87
2022/06/05 00:12:07;;;;;;;10.18;5.50;;;11.80;84.20;;;;;;5088943;28;20040;-87
2022/06/05 00:14:33;;;;;;;7.78;5.20;;;11.80;84.10;;;;;;5103270;28;20030;-88
2022/06/05 00:16:59;;;;;;;9.15;5.10;;;11.80;84.10;;;;;;5112483;27;20023;-87
2022/06/05 00:19:25;;;;;;;10.70;5.40;;;11.80;84.40;;;;;;5079423;28;20364;-87
2022/06/05 00:21:50;;;;;;;9.63;5.30;;;11.80;84.60;;;;;;5093098;28;20054;-88
2022/06/05 00:24:16;;;;;;;6.82;4.90;;;11.80;84.50;;;;;;5092747;27;20019;-88
2022/06/05 00:26:57;;;;;;;9.65;5.35;;;11.80;84.70;;;;;;5088237;28;20020;-87
2022/06/05 00:29:45;;;;;;;9.95;5.55;;;11.80;84.80;;;;;;5093320;28;20124;-88
2022/06/05 00:32:19;;;;;;;8.35;5.00;;;11.80;84.70;;;;;;5093935;28;20524;-87
2022/06/05 00:34:47;;;;;;;9.05;5.45;;;11.80;84.70;;;;;;5110199;28;20055;-87
2022/06/05 00:37:40;;;;;;;8.73;5.68;;;11.90;84.90;;;;;;5093450;28;20497;-87
2022/06/05 00:40:25;;;;;;;8.23;5.15;;;11.90;84.90;;;;;;5078908;28;20054;-87
2022/06/05 00:42:51;;;;;;;8.57;5.53;;;11.90;85.00;;;;;;5094444;28;20035;-88
2022/06/05 00:45:17;;;;;;;11.20;5.63;;;11.80;84.80;;;;;;5090499;28;20030;-87
2022/06/05 00:47:44;;;;;;;9.40;6.07;;;11.80;85.00;;;;;;5110569;28;20024;-87
2022/06/05 00:50:14;;;;;;;9.48;5.80;;;11.80;85.10;;;;;;5093766;28;20424;-88
2022/06/05 00:52:46;;;;;;;8.35;5.93;;;11.80;85.40;;;;;;5105813;28;20051;-88
2022/06/05 00:55:13;;;;;;;9.23;5.72;;;11.80;85.70;;;;;;5079241;28;20039;-88
2022/06/05 00:57:39;;;;;;;9.02;5.65;;;11.80;85.70;;;;;;5090272;28;20052;-87
2022/06/05 01:00:14;;;;;;;10.15;6.18;;;11.70;85.70;;;;;;5104013;28;20118;-87
2022/06/05 01:02:43;;;;;;;8.20;6.35;;;11.70;85.90;;;;;;5093900;28;20061;-87
2022/06/05 01:05:10;;;;;;;8.95;5.82;;;11.70;85.80;;;;;;5081594;28;20032;-87
2022/06/05 01:07:36;;;;;;;8.88;5.95;;;11.60;85.70;;;;;;5095428;28;20357;-87
2022/06/05 01:10:02;;;;;;;8.93;6.38;;;11.50;85.90;;;;;;5092141;28;20077;-87
2022/06/05 01:12:51;;;;;;;9.85;5.85;;;11.50;86.40;;;;;;5092964;28;20047;-87
2022/06/05 01:15:33;;;;;;;9.52;6.13;;;11.50;86.60;;;;;;5110973;28;20514;-87
2022/06/05 01:18:24;;;;;;;11.20;6.00;;;11.40;86.70;;;;;;5093858;28;20482;-87
2022/06/05 01:21:08;;;;;;;9.95;6.82;;;11.40;87.00;;;;;;5081790;28;20027;-87
2022/06/05 01:24:12;;;;;;;9.65;6.20;;;11.40;87.10;;;;;;5088738;28;20109;-87
2022/06/05 01:26:45;;;;;;;9.27;6.03;;;11.30;87.40;;;;;;5108542;28;20087;-87
2022/06/05 01:29:24;;;;;;;11.70;7.22;;;11.40;87.40;;;;;;5093690;28;20386;-87
2022/06/05 01:32:03;;;;;;;10.45;6.63;;;11.40;87.50;;;;;;5114377;28;20470;-87
2022/06/05 01:34:41;;;;;;;10.82;6.45;;;11.30;87.60;;;;;;5095758;28;20023;-87
2022/06/05 01:37:12;;;;;;;11.43;6.70;;;11.30;87.80;;;;;;5102627;28;20479;-87
2022/06/05 01:39:46;;;;;;;10.73;6.57;;;11.30;88.00;;;;;;5088609;28;20080;-87
2022/06/05 01:42:22;;;;;;;11.40;7.20;;;11.30;88.10;;;;;;5099745;28;20039;-87
2022/06/05 01:44:50;;;;;;;9.05;6.57;;;11.30;88.40;;;;;;5095687;28;20052;-87
2022/06/05 01:47:21;;;;;;;11.18;6.55;;;11.30;88.20;;;;;;5097067;28;20023;-87
2022/06/05 01:49:56;;;;;;;12.73;7.45;;;11.20;88.30;;;;;;5097782;28;20015;-87
2022/06/05 01:52:48;;;;;;;13.73;7.60;;;11.20;88.40;;;;;;5115491;28;20119;-87
2022/06/05 01:55:33;;;;;;;13.73;6.75;;;11.20;88.80;;;;;;5110920;28;20027;-87
2022/06/05 01:58:05;;;;;;;9.52;7.22;;;11.20;88.90;;;;;;5104771;27;20586;-87
2022/06/05 02:00:31;;;;;;;14.15;7.45;;;11.20;88.90;;;;;;5093917;28;20019;-87
2022/06/05 02:03:17;;;;;;;11.23;7.20;;;11.10;89.00;;;;;;5095101;28;20512;-87
2022/06/05 02:05:55;;;;;;;10.38;7.55;;;11.10;89.20;;;;;;5088180;28;20107;-87
2022/06/05 02:08:27;;;;;;;10.98;7.35;;;11.00;89.30;;;;;;5096826;28;20024;-87
2022/06/05 02:11:12;;;;;;;14.60;8.20;;;11.00;89.40;;;;;;5090188;28;20090;-87
2022/06/05 02:13:38;;;;;;;12.30;8.43;;;11.00;89.50;;;;;;5088867;28;20066;-87
2022/06/05 02:16:04;;;;;;;11.95;7.80;;;11.00;89.80;;;;;;5113213;27;20039;-87
2022/06/05 02:18:31;;;;;;;12.98;8.45;;;11.00;89.80;;;;;;5096261;28;20028;-87
2022/06/05 02:20:57;;;;;;;14.48;8.02;;;11.00;90.10;;;;;;5113947;28;20031;-87
2022/06/05 02:23:27;;;;;;;16.40;9.52;;;11.00;90.20;;;;;;5097714;27;20031;-87
2022/06/05 02:25:54;;;;;;;12.32;8.43;;;11.00;90.40;;;;;;5102763;28;20034;-87
2022/06/05 02:28:21;;;;;;;17.25;9.18;;;11.00;90.30;;;;;;5096930;28;20118;-87
2022/06/05 02:31:11;;;;;;;15.82;8.98;;;11.10;90.50;;;;;;5096463;28;20027;-88
2022/06/05 02:33:46;;;;;;;14.35;8.77;;;11.10;90.70;;;;;;5089046;28;20031;-87
2022/06/05 02:36:38;;;;;;;15.13;8.25;;;11.10;90.60;;;;;;5081687;28;20042;-87
2022/06/05 02:39:38;;;;;;;14.63;8.88;;;11.10;90.50;;;;;;5098906;28;20032;-87
2022/06/05 02:42:29;;;;;;;11.63;8.73;;;11.10;90.70;;;;;;5110981;27;20440;-87
2022/06/05 02:45:23;;;;;;;15.88;9.05;;;11.10;90.60;;;;;;5095623;28;20031;-87
2022/06/05 02:48:03;;;;;;;14.07;8.82;;;11.10;90.70;;;;;;5095764;27;20042;-87
2022/06/05 02:50:38;;;;;;;17.48;9.77;;;11.10;90.70;;;;;;5104376;28;20059;-87
2022/06/05 02:53:07;;;;;;;13.23;9.00;;;11.10;90.80;;;;;;5075535;28;20089;-87
2022/06/05 02:55:33;;;;;;;11.98;8.63;;;11.00;90.80;;;;;;5085756;28;20073;-87
2022/06/05 02:57:59;;;;;;;13.82;9.73;;;11.10;91.00;;;;;;5095219;28;20061;-87
2022/06/05 03:00:27;;;;;;;16.00;9.60;;;11.00;91.00;;;;;;5095775;28;20027;-87
2022/06/05 03:05:40;;;;;;;13.23;9.13;;;11.00;91.10;;;;;;5108927;27;20107;-87
2022/06/05 03:08:08;;;;;;;13.73;9.57;;;11.00;91.10;;;;;;5095393;28;20027;-87
2022/06/05 03:10:34;;;;;;;16.08;10.07;;;11.00;91.30;;;;;;5108756;28;20036;-87
2022/06/05 03:13:01;;;;;;;14.30;9.52;;;11.00;91.20;;;;;;5095620;28;20038;-87
2022/06/05 03:15:27;;;;;;;14.82;9.70;;;11.10;91.30;;;;;;5121598;27;20020;-87
2022/06/05 03:17:56;;;;;;;19.17;9.50;;;11.10;91.30;;;;;;5095290;28;20027;-87
2022/06/05 03:20:22;;;;;;;14.82;9.32;;;11.10;91.40;;;;;;5081454;28;20398;-87
2022/06/05 03:22:49;;;;;;;15.73;8.70;;;11.10;91.40;;;;;;5092679;28;20032;-87
2022/06/05 03:25:20;;;;;;;13.45;9.20;;;11.00;91.30;;;;;;5090331;28;20023;-87
2022/06/05 03:27:45;;;;;;;14.05;8.90;;;11.00;91.30;;;;;;5094617;28;20024;-87
2022/06/05 03:30:13;;;;;;;14.15;8.98;;;11.00;91.40;;;;;;5095121;28;20035;-87
2022/06/05 03:32:39;;;;;;;19.45;9.50;;;11.00;91.50;;;;;;5095492;28;20043;-87
2022/06/05 03:35:05;;;;;;;16.33;8.60;;;11.00;91.60;;;;;;5090713;28;20031;-87
2022/06/05 03:37:31;;;;;;;14.45;9.52;;;11.00;91.70;;;;;;5094873;28;20137;-87
2022/06/05 03:39:57;;;;;;;14.68;9.20;;;11.10;91.70;;;;;;5093216;28;20055;-87
2022/06/05 03:42:24;;;;;;;15.60;9.43;;;11.10;91.50;;;;;;5093123;28;20516;-87
2022/06/05 03:44:50;;;;;;;15.40;9.50;;;11.10;91.60;;;;;;5112632;28;20497;-87
2022/06/05 03:47:15;;;;;;;12.57;8.88;;;11.20;91.70;;;;;;5085696;28;20024;-87
2022/06/05 03:49:41;;;;;;;12.90;9.10;;;11.20;91.50;;;;;;5089813;28;20024;-87
2022/06/05 03:52:09;;;;;;;14.05;9.82;;;11.30;91.60;;;;;;5107387;28;20019;-87
2022/06/05 03:54:34;;;;;;;17.30;10.38;;;11.30;91.60;;;;;;5092529;28;20047;-87
2022/06/05 03:57:01;;;;;;;14.02;9.23;;;11.30;91.50;;;;;;5099279;27;20023;-87
2022/06/05 03:59:27;;;;;;;14.55;9.70;;;11.40;91.50;;;;;;5094168;28;20110;-87
2022/06/05 04:01:52;;;;;;;13.23;9.38;;;11.50;91.30;;;;;;5088064;28;20117;-87
2022/06/05 04:04:18;;;;;;;16.58;9.90;;;11.40;91.20;;;;;;5112131;28;20549;-87
2022/06/05 04:06:43;;;;;;;13.50;9.40;;;11.50;91.30;;;;;;5112066;27;20023;-87
2022/06/05 04:09:09;;;;;;;13.75;9.15;;;11.50;91.40;;;;;;5111787;28;20114;-86
2022/06/05 04:11:37;;;;;;;14.00;9.15;;;11.50;91.10;;;;;;5092103;28;20035;-86
2022/06/05 04:14:04;;;;;;;15.38;9.48;;;11.60;91.20;;;;;;5086507;28;20364;-86
2022/06/05 04:16:31;;;;;;;13.80;9.85;;;11.60;91.20;;;;;;5086810;28;20031;-86
2022/06/05 04:18:58;;;;;;;11.05;7.95;;;11.70;91.20;;;;;;5092895;28;20447;-86
2022/06/05 04:21:28;;;;;;;14.23;9.15;;;11.80;90.90;;;;;;5093237;28;20020;-86
2022/06/05 04:23:54;;;;;;;11.82;8.65;;;11.80;90.80;;;;;;5103787;27;20047;-86
2022/06/05 04:26:23;;;;;;;11.60;8.63;;;11.90;90.60;;;;;;5109020;28;20440;-86
2022/06/05 04:28:49;;;;;;;13.85;9.38;;;12.00;90.50;;;;;;5098616;28;20083;-86
2022/06/05 04:31:23;;;;;;;15.73;9.73;;;11.90;90.60;;;;;;5118426;27;20046;-86
2022/06/05 04:33:50;;;;;;;16.05;9.30;;;12.10;90.20;;;;;;5091678;28;20390;-86
2022/06/05 04:36:16;;;;;;;14.57;9.05;;;12.10;90.00;;;;;;5092963;28;20032;-86
2022/06/05 04:38:42;;;;;;;13.45;8.43;;;12.20;89.80;;;;;;5092612;28;20031;-86
2022/06/05 04:41:07;;;;;;;13.30;8.57;;;12.30;89.60;;;;;;5109929;27;20046;-86
2022/06/05 04:43:34;;;;;;;12.43;8.55;;;12.30;89.50;;;;;;5093643;28;20034;-86
2022/06/05 04:45:59;;;;;;;13.48;8.55;;;12.40;89.00;;;;;;5083185;28;20027;-86
2022/06/05 04:48:25;;;;;;;13.82;8.32;;;12.50;88.90;;;;;;5092121;28;20470;-86
2022/06/05 04:50:50;;;;;;;14.63;7.97;;;12.60;88.60;;;;;;5088967;28;20027;-86
2022/06/05 04:53:16;;;;;;;11.52;8.18;;;12.60;88.20;;;;;;5111019;28;20035;-86
2022/06/05 04:55:41;;;;;;;14.90;8.63;;;12.70;88.00;;;;;;5090087;28;20036;-85
2022/06/05 04:58:07;;;;;;;14.23;7.75;;;12.80;87.50;;;;;;5090481;28;20466;-85
2022/06/05 05:00:32;;;;;;;13.30;7.63;;;12.90;87.60;;;;;;5091934;28;20111;-85
2022/06/05 05:02:58;;;;;;;12.30;8.20;;;12.90;87.80;;;;;;5079474;28;20028;-85
2022/06/05 05:05:23;;;;;;;13.63;7.47;;;13.00;87.60;;;;;;5093123;28;20023;-86
2022/06/05 05:07:49;;;;;;;12.02;8.40;;;13.00;87.00;;;;;;5080642;28;20538;-86
2022/06/05 05:10:15;;;;;;;11.57;7.55;;;13.10;86.60;;;;;;5098680;28;20077;-86
2022/06/05 05:12:40;;;;;;;12.20;7.60;;;13.20;86.60;;;;;;5077135;28;20571;-86
2022/06/05 05:15:08;;;;;;;10.73;7.50;;;13.30;86.10;;;;;;5095036;28;20106;-86
2022/06/05 05:17:33;;;;;;;10.77;7.60;;;13.40;85.90;;;;;;5073186;28;20077;-86
2022/06/05 05:19:59;;;;;;;12.80;6.55;;;13.50;85.60;;;;;;5092113;28;20478;-86
2022/06/05 05:22:25;;;;;;;10.52;6.88;;;13.50;84.60;;;;;;5077175;28;20028;-86
2022/06/05 05:24:50;;;;;;;12.20;7.32;;;13.70;84.00;;;;;;5075134;28;20505;-86
2022/06/05 05:27:16;;;;;;;10.05;6.20;;;13.70;83.40;;;;;;5073046;28;20040;-86
2022/06/05 05:29:42;;;;;;;9.07;6.45;;;13.80;83.70;;;;;;5076708;28;20043;-86
2022/06/05 05:32:09;;;;;;;9.07;5.97;;;13.90;82.90;;;;;;5074350;28;20379;-85
2022/06/05 05:34:35;;;;;;;8.50;5.55;;;14.00;83.10;;;;;;5074429;28;20059;-85
2022/06/05 05:37:01;;;;;;;8.75;5.97;;;14.00;82.90;;;;;;5076050;28;20478;-85
2022/06/05 05:42:11;;;;;;;11.27;5.32;;;14.20;81.70;;;;;;5092274;28;20032;-85
2022/06/05 05:44:48;;;;;;;8.57;5.25;;;14.30;80.10;;;;;;5075970;28;20562;-85
2022/06/05 05:47:17;;;;;;;7.28;4.47;;;14.50;79.40;;;;;;5060582;28;20029;-85
2022/06/05 05:49:43;;;;;;;9.02;5.15;;;14.60;79.00;;;;;;5075291;28;20016;-85
2022/06/05 05:52:09;;;;;;;6.43;4.40;;;14.70;79.30;;;;;;5075917;28;20115;-85
2022/06/05 05:54:36;;;;;;;6.88;4.63;;;14.80;79.60;;;;;;5092766;28;20028;-85
2022/06/05 05:57:03;;;;;;;7.90;4.50;;;14.90;78.90;;;;;;5092648;28;20066;-85
2022/06/05 05:59:28;;;;;;;7.20;4.68;;;14.90;76.90;;;;;;5075527;28;20032;-86
2022/06/05 06:01:54;;;;;;;7.60;4.43;;;15.10;77.80;;;;;;5073687;28;20013;-85
2022/06/05 06:04:19;;;;;;;9.75;4.68;;;15.30;77.60;;;;;;5075279;28;20032;-85
2022/06/05 06:06:49;;;;;;;6.60;4.05;;;15.40;76.00;;;;;;5074823;28;20023;-85
2022/06/05 06:09:15;;;;;;;6.10;4.07;;;15.60;75.60;;;;;;5072508;28;20467;-86
2022/06/05 06:11:40;;;;;;;7.10;4.13;;;15.70;75.20;;;;;;5067011;28;20626;-86
2022/06/05 06:14:06;;;;;;;7.15;4.22;;;15.80;75.70;;;;;;5076050;28;20024;-86
2022/06/05 06:16:33;;;;;;;6.90;3.92;;;15.90;74.80;;;;;;5075627;28;20024;-85
2022/06/05 06:18:59;;;;;;;7.15;4.13;;;16.00;72.80;;;;;;5092736;28;20039;-85
2022/06/05 06:21:25;;;;;;;5.55;3.80;;;16.10;73.60;;;;;;5093870;28;20028;-86
2022/06/05 06:23:50;;;;;;;6.03;4.05;;;16.30;73.50;;;;;;5073985;28;20115;-86
2022/06/05 06:26:16;;;;;;;9.55;4.28;;;16.50;74.00;;;;;;5072626;28;20031;-86
2022/06/05 06:28:42;;;;;;;5.80;3.72;;;16.40;71.30;;;;;;5075416;28;20024;-86
2022/06/05 06:31:13;;;;;;;8.25;3.90;;;16.50;70.70;;;;;;5076217;28;20024;-86
2022/06/05 06:33:40;;;;;;;4.95;3.20;;;16.70;71.50;;;;;;5084956;28;20043;-86
2022/06/05 06:36:11;;;;;;;8.25;3.67;;;16.90;69.40;;;;;;5073619;28;20024;-86
2022/06/05 06:38:37;;;;;;;5.22;3.42;;;17.00;68.80;;;;;;5078880;28;20490;-86
2022/06/05 06:41:08;;;;;;;4.93;3.15;;;17.20;69.90;;;;;;5090349;28;20398;-86
2022/06/05 06:43:34;;;;;;;5.22;3.65;;;17.40;69.00;;;;;;5075008;28;20032;-86
2022/06/05 06:46:00;;;;;;;5.32;3.20;;;17.60;68.40;;;;;;5074780;28;20028;-85
2022/06/05 06:48:27;;;;;;;8.93;3.20;;;17.80;67.50;;;;;;5071368;28;20021;-86
2022/06/05 06:50:53;;;;;;;5.28;3.38;;;17.60;65.40;;;;;;5072938;28;20039;-86
2022/06/05 06:53:20;;;;;;;4.97;3.05;;;17.90;65.60;;;;;;5092980;28;20537;-86
2022/06/05 06:55:45;;;;;;;4.60;3.10;;;18.10;65.90;;;;;;5069723;28;20475;-86
2022/06/05 06:58:11;;;;;;;6.45;3.42;;;18.30;64.50;;;;;;5071665;28;20032;-86
2022/06/05 07:00:36;;;;;;;7.32;3.17;;;18.40;63.90;;;;;;5074377;28;20452;-86
2022/06/05 07:03:02;;;;;;;3.90;2.58;;;18.60;64.90;;;;;;5075459;28;20024;-86
2022/06/05 07:05:27;;;;;;;4.75;2.30;;;18.60;63.80;;;;;;5072630;28;20034;-86
2022/06/05 07:07:53;;;;;;;4.72;2.60;;;18.80;64.30;;;;;;5092179;28;20432;-86
2022/06/05 07:10:18;;;;;;;3.45;2.80;;;19.00;64.00;;;;;;5088170;28;20028;-87
2022/06/05 07:12:44;;;;;;;5.00;2.70;;;19.00;61.00;;;;;;5068082;28;20496;-86
2022/06/05 07:15:12;;;;;;;6.57;2.83;;;19.20;61.00;;;;;;5093013;28;20024;-86
2022/06/05 07:17:38;;;;;;;5.97;3.20;;;19.40;60.40;;;;;;5096949;28;20502;-86
2022/06/05 07:20:04;;;;;;;5.10;2.10;;;19.50;60.50;;;;;;5071756;28;20040;-86
2022/06/05 07:22:29;;;;;;;7.72;2.67;;;19.60;58.30;;;;;;5076771;28;20032;-86
2022/06/05 07:24:55;;;;;;;3.38;2.33;;;20.00;58.80;;;;;;5070490;28;20421;-86
2022/06/05 07:27:20;;;;;;;4.22;2.25;;;20.00;57.20;;;;;;5070036;28;20024;-86
2022/06/05 07:29:46;;;;;;;4.32;2.28;;;19.90;56.10;;;;;;5073621;28;20042;-86
2022/06/05 07:32:13;;;;;;;4.53;2.33;;;20.10;55.90;;;;;;5087380;28;20047;-87
2022/06/05 07:34:39;;;;;;;4.03;2.42;;;20.00;55.30;;;;;;5077681;28;20063;-86
2022/06/05 07:37:05;;;;;;;4.18;2.50;;;20.10;56.30;;;;;;5091804;28;20023;-86
2022/06/05 07:39:30;;;;;;;3.35;2.08;;;20.50;57.80;;;;;;5072058;28;20152;-87
2022/06/05 07:41:58;;;;;;;3.72;2.30;;;20.80;57.90;;;;;;5103867;28;20031;-87
2022/06/05 07:44:25;;;;;;;3.20;2.00;;;20.90;53.60;;;;;;5091819;28;20031;-86
2022/06/05 07:46:51;;;;;;;2.97;1.80;;;20.70;53.50;;;;;;5066830;28;20028;-87
2022/06/05 07:49:17;;;;;;;4.57;2.05;;;21.40;55.40;;;;;;5093107;28;20203;-87
2022/06/05 07:54:27;;;;;;;4.68;2.17;;;21.50;52.80;;;;;;5092907;28;20047;-87
2022/06/05 07:56:54;;;;;;;3.40;2.03;;;21.70;52.80;;;;;;5091497;28;20103;-86
2022/06/05 07:59:20;;;;;;;3.60;1.90;;;21.90;52.80;;;;;;5072966;28;20522;-86
2022/06/05 08:01:45;;;;;;;2.78;1.80;;;22.10;53.10;;;;;;5069584;28;20276;-86
2022/06/05 08:04:11;;;;;;;5.97;1.92;;;22.10;50.40;;;;;;5070912;28;20118;-86
2022/06/05 08:06:37;;;;;;;5.20;1.75;;;22.50;50.90;;;;;;5072537;28;20031;-87
2022/06/05 08:09:04;;;;;;;3.22;1.95;;;22.50;51.70;;;;;;5080992;28;20024;-86
2022/06/05 08:11:31;;;;;;;2.95;1.80;;;22.30;48.10;;;;;;5073994;28;20043;-87
2022/06/05 08:13:57;;;;;;;2.92;1.90;;;22.40;48.70;;;;;;5092583;28;20031;-87
2022/06/05 08:16:23;;;;;;;3.58;1.90;;;22.60;51.00;;;;;;5083337;28;20035;-87
2022/06/05 08:18:51;;;;;;;2.47;1.85;;;23.00;52.10;;;;;;5104873;28;20028;-87
2022/06/05 08:21:26;;;;;;;3.80;1.90;;;22.90;47.20;;;;;;5102403;27;20107;-87
2022/06/05 08:23:51;;;;;;;4.20;1.85;;;22.80;48.90;;;;;;5113156;27;20512;-87
2022/06/05 08:26:17;;;;;;;2.38;1.75;;;23.20;47.00;;;;;;5077831;28;20063;-86
2022/06/05 08:28:43;;;;;;;2.92;1.98;;;23.20;50.00;;;;;;5093232;28;20448;-87
2022/06/05 08:31:08;;;;;;;3.33;1.77;;;23.60;48.80;;;;;;5108167;28;20036;-87
2022/06/05 08:33:37;;;;;;;4.47;2.10;;;23.50;49.10;;;;;;5087351;28;20039;-87
2022/06/05 08:36:02;;;;;;;4.25;2.00;;;23.40;49.40;;;;;;5092532;28;20027;-87
2022/06/05 08:41:39;;;;;;;3.55;1.90;;;23.70;48.20;;;;;;5105014;28;20030;-87
2022/06/05 08:44:34;;;;;;;6.13;2.00;;;24.00;46.50;;;;;;5092015;28;20042;-87
2022/06/05 08:47:20;;;;;;;3.40;2.25;;;23.70;45.30;;;;;;5103470;28;20012;-87
2022/06/05 08:50:22;;;;;;;6.35;2.00;;;23.50;47.10;;;;;;5111604;28;20023;-86
2022/06/05 08:52:58;;;;;;;4.95;2.28;;;23.60;47.80;;;;;;5111628;28;20032;-87
2022/06/05 08:55:34;;;;;;;1.95;1.60;;;23.90;47.20;;;;;;5088253;28;20028;-87
2022/06/05 08:58:14;;;;;;;3.58;2.10;;;24.20;46.80;;;;;;5083960;28;20039;-87
2022/06/05 09:00:47;;;;;;;3.20;2.08;;;24.70;47.60;;;;;;5091162;28;20482;-86
2022/06/05 09:03:27;;;;;;;2.28;1.63;;;24.70;48.30;;;;;;5112339;28;20418;-87
2022/06/05 09:06:06;;;;;;;4.15;2.05;;;24.70;48.70;;;;;;5091519;28;20023;-86
2022/06/05 09:08:36;;;;;;;2.83;1.70;;;24.50;46.10;;;;;;5110286;28;20023;-86
2022/06/05 09:11:06;;;;;;;2.40;1.70;;;24.70;44.60;;;;;;5089878;28;20050;-86
2022/06/05 09:13:47;;;;;;;2.42;2.00;;;24.80;45.70;;;;;;5098275;28;20047;-87
2022/06/05 09:16:14;;;;;;;;;;;24.60;45.20;;;;;;5094108;28;20485;-87
2022/06/05 09:18:46;;;;;;;7.95;1.90;;;24.50;45.60;;;;;;5091305;28;19911;-86
2022/06/05 09:21:23;;;;;;;3.17;1.88;;;24.70;46.00;;;;;;5088585;28;20479;-86
2022/06/05 09:24:15;;;;;;;3.50;1.83;;;25.20;45.70;;;;;;5090758;28;20047;-86
2022/06/05 09:26:42;;;;;;;3.33;1.40;;;25.20;47.90;;;;;;5106462;28;20031;-87
2022/06/05 09:29:30;;;;;;;2.92;1.73;;;25.50;42.70;;;;;;5095618;28;20120;-87
2022/06/05 09:32:14;;;;;;;3.17;1.80;;;25.40;43.70;;;;;;5079040;28;20448;-87
2022/06/05 09:34:47;;;;;;;3.72;1.65;;;25.90;46.80;;;;;;5087282;28;20016;-87
2022/06/05 09:37:30;;;;;;;3.22;1.77;;;26.10;45.10;;;;;;5091766;28;20035;-87
2022/06/05 09:39:58;;;;;;;2.72;1.52;;;25.70;41.10;;;;;;5110161;28;20478;-87
2022/06/05 09:42:33;;;;;;;2.95;1.65;;;25.50;44.50;;;;;;5089486;28;20204;-87
2022/06/05 09:45:23;;;;;;;2.58;1.52;;;25.10;43.10;;;;;;5111152;28;20020;-87
2022/06/05 09:48:14;;;;;;;3.20;1.80;;;25.10;43.10;;;;;;5104542;28;20479;-87
2022/06/05 09:50:40;;;;;;;2.85;1.50;;;24.90;44.70;;;;;;5104474;28;20024;-87
2022/06/05 09:53:07;;;;;;;4.53;2.05;;;25.30;43.00;;;;;;5111960;27;20092;-87
2022/06/05 09:55:58;;;;;;;3.17;1.70;;;25.50;47.50;;;;;;5115389;27;20382;-87
2022/06/05 09:58:27;;;;;;;3.22;1.80;;;26.20;41.20;;;;;;5094093;28;20489;-87
2022/06/05 10:00:56;;;;;;;4.60;1.85;;;26.00;43.90;;;;;;5077168;28;20024;-87
2022/06/05 10:03:29;;;;;;;3.55;1.70;;;25.80;45.40;;;;;;5097275;28;20020;-87
2022/06/05 10:06:25;;;;;;;3.13;1.55;;;26.00;45.10;;;;;;5093613;28;20046;-87
2022/06/05 10:09:04;;;;;;;1.85;1.42;;;26.00;44.20;;;;;;5095331;28;20027;-87
2022/06/05 10:11:54;;;;;;;2.47;1.52;;;26.00;44.00;;;;;;5112747;27;20525;-85
2022/06/05 10:14:30;;;;;;;3.05;1.77;;;25.90;40.30;;;;;;5115258;28;20046;-85
2022/06/05 10:17:14;;;;;;;1.65;1.30;;;26.00;42.70;;;;;;5095138;28;20058;-86
2022/06/05 10:19:56;;;;;;;3.08;1.70;;;26.60;41.90;;;;;;5115401;27;20028;-85
2022/06/05 10:22:39;;;;;;;3.25;1.40;;;25.50;41.30;;;;;;5083467;28;20028;-85
2022/06/05 10:25:27;;;;;;;2.40;1.55;;;26.30;43.60;;;;;;5088213;28;20024;-85
2022/06/05 10:28:00;;;;;;;3.08;1.63;;;26.30;41.20;;;;;;5086540;28;20047;-85
2022/06/05 10:30:36;;;;;;;2.47;1.75;;;26.50;41.90;;;;;;5114968;28;20038;-85
2022/06/05 10:33:39;;;;;;;2.28;1.40;;;27.00;40.20;;;;;;5114484;28;20055;-85
2022/06/05 10:36:22;;;;;;;1.83;1.42;;;26.60;39.10;;;;;;5109830;28;20024;-86
2022/06/05 10:38:59;;;;;;;3.63;1.58;;;26.00;39.80;;;;;;5093130;28;20028;-86
2022/06/05 10:41:32;;;;;;;2.95;1.88;;;26.50;39.90;;;;;;5093174;28;20134;-85
2022/06/05 10:44:20;;;;;;;1.88;1.50;;;26.70;39.70;;;;;;5114009;27;20041;-85
2022/06/05 10:47:09;;;;;;;2.35;1.65;;;27.00;40.80;;;;;;5094346;28;20101;-85
2022/06/05 10:49:55;;;;;;;3.15;1.77;;;26.90;37.50;;;;;;5093734;28;20023;-85
2022/06/05 10:52:45;;;;;;;2.55;1.60;;;27.20;40.20;;;;;;5099180;28;20058;-85
2022/06/05 10:55:14;;;;;;;2.50;1.65;;;27.20;39.30;;;;;;5091085;28;20646;-85
2022/06/05 10:57:46;;;;;;;2.75;1.95;;;27.60;39.70;;;;;;5113342;28;20100;-85
2022/06/05 11:00:17;;;;;;;2.05;1.48;;;27.60;39.80;;;;;;5094701;28;20039;-85
2022/06/05 11:03:04;;;;;;;2.55;1.80;;;27.40;39.30;;;;;;5095510;28;20059;-86
2022/06/05 11:05:41;;;;;;;2.65;1.40;;;26.80;40.80;;;;;;5102835;28;20475;-86
2022/06/05 11:08:44;;;;;;;3.15;1.67;;;26.70;39.40;;;;;;5094810;28;20023;-85
2022/06/05 11:14:32;;;;;;;2.78;1.65;;;27.00;39.10;;;;;;5102091;28;20132;-86
2022/06/05 11:17:26;;;;;;;4.57;1.83;;;27.20;39.20;;;;;;5101801;28;20043;-86
2022/06/05 11:20:09;;;;;;;3.42;1.58;;;27.00;39.30;;;;;;5094908;28;20056;-86
2022/06/05 11:22:51;;;;;;;4.38;1.70;;;27.20;39.10;;;;;;5094177;28;20055;-86
2022/06/05 11:25:31;;;;;;;5.40;1.73;;;27.30;42.20;;;;;;5090103;28;20058;-85
2022/06/05 11:28:09;;;;;;;2.13;1.47;;;27.10;40.50;;;;;;5084994;28;20055;-85
2022/06/05 11:30:55;;;;;;;2.83;1.50;;;27.90;43.30;;;;;;5091418;28;20331;-86
2022/06/05 11:33:24;;;;;;;2.67;1.80;;;28.40;40.00;;;;;;5094369;28;20505;-85
2022/06/05 11:35:52;;;;;;;4.05;1.70;;;28.00;38.10;;;;;;5112389;27;20390;-85
2022/06/05 11:39:11;;;;;;;2.70;1.60;;;28.00;37.70;;;;;;5111632;28;20069;-85
2022/06/05 11:42:11;;;;;;;4.60;1.70;;;28.00;36.60;;;;;;5106672;28;20039;-86
2022/06/05 11:45:08;;;;;;;2.78;1.60;;;28.10;37.00;;;;;;5095587;27;20498;-86
2022/06/05 11:47:50;;;;;;;2.08;1.50;;;28.30;38.40;;;;;;5106015;28;20028;-86
2022/06/05 11:50:51;;;;;;;2.88;1.80;;;28.20;39.70;;;;;;5111863;28;20050;-85
2022/06/05 11:53:58;;;;;;;4.30;1.85;;;28.20;38.30;;;;;;5106645;27;20028;-86
2022/06/05 11:56:29;;;;;;;2.90;2.00;;;28.20;36.50;;;;;;5089668;28;20039;-86
2022/06/05 11:59:00;;;;;;;4.18;1.70;;;28.50;38.10;;;;;;5084382;28;20062;-85
2022/06/05 12:01:31;;;;;;;3.85;2.08;;;28.60;39.00;;;;;;5106790;27;20027;-86
2022/06/05 12:04:15;;;;;;;3.75;1.67;;;28.00;36.00;;;;;;5101274;28;20039;-86
2022/06/05 12:06:49;;;;;;;4.13;1.80;;;28.80;36.00;;;;;;5083936;28;20039;-86
2022/06/05 12:09:53;;;;;;;3.70;1.80;;;28.80;36.80;;;;;;5090438;28;20019;-86
2022/06/05 12:12:41;;;;;;;2.40;1.90;;;28.50;38.70;;;;;;5092133;28;20054;-87
2022/06/05 12:15:25;;;;;;;1.90;1.60;;;27.40;36.80;;;;;;5100299;28;20542;-86
2022/06/05 12:18:18;;;;;;;3.65;1.95;;;28.00;36.60;;;;;;5075998;28;20166;-85
2022/06/05 12:20:56;;;;;;;2.38;1.52;;;28.80;37.10;;;;;;5090460;28;20497;-86
2022/06/05 12:23:36;;;;;;;3.33;1.70;;;29.30;36.90;;;;;;5093367;28;20024;-85
2022/06/05 12:26:13;;;;;;;3.20;1.63;;;29.00;36.30;;;;;;5107098;28;20182;-85
2022/06/05 12:28:58;;;;;;;2.80;1.90;;;29.20;37.90;;;;;;5109246;27;20474;-85
2022/06/05 12:31:36;;;;;;;2.75;1.65;;;28.10;37.40;;;;;;5087238;28;20024;-85
2022/06/05 12:34:16;;;;;;;2.40;1.58;;;28.70;36.90;;;;;;5086130;28;20430;-86
2022/06/05 12:37:03;;;;;;;3.40;1.60;;;28.90;37.30;;;;;;5089384;28;20023;-85
2022/06/05 12:39:33;;;;;;;2.75;1.77;;;28.10;38.10;;;;;;5078640;28;20087;-86
2022/06/05 12:42:05;;;;;;;;;;;28.90;37.70;;;;;;5109746;28;20492;-85
2022/06/05 12:44:41;;;;;;;1.98;1.40;;;28.80;38.10;;;;;;5092975;28;19915;-85
2022/06/05 12:47:21;;;;;;;2.95;1.55;;;29.50;34.30;;;;;;5092971;28;20028;-86
2022/06/05 12:50:01;;;;;;;2.38;1.60;;;29.80;37.30;;;;;;5090994;28;20032;-86
2022/06/05 12:52:51;;;;;;;2.63;1.73;;;29.70;37.30;;;;;;5111595;28;20098;-85
2022/06/05 12:55:59;;;;;;;2.92;1.58;;;29.50;35.40;;;;;;5089098;28;20031;-86
2022/06/05 12:58:45;;;;;;;4.22;1.60;;;28.90;38.10;;;;;;5028402;28;20469;-86
2022/06/05 13:01:26;;;;;;;3.75;1.55;;;28.90;37.60;;;;;;5022400;28;21625;-86
2022/06/05 13:04:06;;;;;;;3.33;1.88;;;29.00;37.60;;;;;;5070129;28;20038;-85
2022/06/05 13:06:53;;;;;;;2.45;1.50;;;28.50;36.70;;;;;;5092311;28;20032;-85
2022/06/05 13:09:44;;;;;;;3.38;1.73;;;28.70;37.50;;;;;;5093094;28;20028;-85
2022/06/05 13:12:25;;;;;;;;;;;28.70;36.60;;;;;;5105309;27;20039;-85
2022/06/05 13:15:19;;;;;;;3.60;1.58;;;28.90;38.10;;;;;;5110630;28;19919;-85
2022/06/05 13:18:03;;;;;;;2.65;1.40;;;29.20;39.90;;;;;;5101625;28;20023;-85
2022/06/05 13:20:40;;;;;;;2.95;1.88;;;29.00;37.50;;;;;;5091783;28;20030;-85
2022/06/05 13:23:43;;;;;;;2.97;1.80;;;28.00;37.00;;;;;;5088647;28;20024;-85
2022/06/05 13:26:16;;;;;;;4.32;1.70;;;28.30;39.40;;;;;;5081432;28;20406;-85
2022/06/05 13:28:57;;;;;;;4.18;1.83;;;27.50;39.10;;;;;;5095735;28;20024;-85
2022/06/05 13:31:28;;;;;;;4.55;2.00;;;28.20;40.50;;;;;;5112435;28;20167;-85
2022/06/05 13:34:08;;;;;;;3.60;1.88;;;28.40;40.20;;;;;;5090303;27;20031;-85